sensor_id;sensor_type;location;lat;lon;timestamp;pressure;altitude;pressure_sealevel;temperature
71640;BMP280;60912;48.968;10.124;2023-05-10T00:00:21;95938.75;;;15.88
71640;BMP280;60912;48.968;10.124;2023-05-10T00:02:49;95932.78;;;15.82
71640;BMP280;60912;48.968;10.124;2023-05-10T00:05:14;95932.91;;;15.84
71640;BMP280;60912;48.968;10.124;2023-05-10T00:07:39;95935.97;;;15.88
71640;BMP280;60912;48.968;10.124;2023-05-10T00:10:05;95939.91;;;15.85
71640;BMP280;60912;48.968;10.124;2023-05-10T00:12:31;95934.34;;;15.85
71640;BMP280;60912;48.968;10.124;2023-05-10T00:14:56;95933.50;;;15.82
71640;BMP280;60912;48.968;10.124;2023-05-10T00:17:22;95938.22;;;15.80
71640;BMP280;60912;48.968;10.124;2023-05-10T00:19:47;95935.38;;;15.89
71640;BMP280;60912;48.968;10.124;2023-05-10T00:22:13;95932.66;;;15.80
71640;BMP280;60912;48.968;10.124;2023-05-10T00:24:38;95936.13;;;15.80
71640;BMP280;60912;48.968;10.124;2023-05-10T00:27:04;95937.59;;;15.81
71640;BMP280;60912;48.968;10.124;2023-05-10T00:29:29;95929.03;;;15.77
71640;BMP280;60912;48.968;10.124;2023-05-10T00:31:54;95939.78;;;15.83
71640;BMP280;60912;48.968;10.124;2023-05-10T00:34:20;95931.22;;;15.79
71640;BMP280;60912;48.968;10.124;2023-05-10T00:36:45;95930.00;;;15.82
71640;BMP280;60912;48.968;10.124;2023-05-10T00:39:11;95932.13;;;15.72
71640;BMP280;60912;48.968;10.124;2023-05-10T00:41:37;95933.59;;;15.73
71640;BMP280;60912;48.968;10.124;2023-05-10T00:44:02;95935.81;;;15.64
71640;BMP280;60912;48.968;10.124;2023-05-10T00:46:30;95935.75;;;15.53
71640;BMP280;60912;48.968;10.124;2023-05-10T00:48:56;95933.84;;;15.55
71640;BMP280;60912;48.968;10.124;2023-05-10T00:51:21;95928.41;;;15.57
71640;BMP280;60912;48.968;10.124;2023-05-10T00:53:48;95938.06;;;15.56
71640;BMP280;60912;48.968;10.124;2023-05-10T00:56:15;95936.59;;;15.55
71640;BMP280;60912;48.968;10.124;2023-05-10T00:58:40;95932.28;;;15.43
71640;BMP280;60912;48.968;10.124;2023-05-10T01:01:07;95925.91;;;15.40
71640;BMP280;60912;48.968;10.124;2023-05-10T01:03:33;95920.72;;;15.46
71640;BMP280;60912;48.968;10.124;2023-05-10T01:05:59;95930.53;;;15.47
71640;BMP280;60912;48.968;10.124;2023-05-10T01:08:25;95936.06;;;15.47
71640;BMP280;60912;48.968;10.124;2023-05-10T01:10:50;95932.91;;;15.41
71640;BMP280;60912;48.968;10.124;2023-05-10T01:13:27;95934.81;;;15.39
71640;BMP280;60912;48.968;10.124;2023-05-10T01:15:55;95932.28;;;15.43
71640;BMP280;60912;48.968;10.124;2023-05-10T01:18:21;95934.38;;;15.42
71640;BMP280;60912;48.968;10.124;2023-05-10T01:20:48;95944.63;;;15.30
71640;BMP280;60912;48.968;10.124;2023-05-10T01:23:39;95941.22;;;15.41
71640;BMP280;60912;48.968;10.124;2023-05-10T01:29:10;95941.63;;;15.47
71640;BMP280;60912;48.968;10.124;2023-05-10T01:34:20;95952.47;;;15.43
71640;BMP280;60912;48.968;10.124;2023-05-10T01:37:02;95939.66;;;15.38
71640;BMP280;60912;48.968;10.124;2023-05-10T01:42:40;95950.50;;;15.25
71640;BMP280;60912;48.968;10.124;2023-05-10T01:45:04;95951.75;;;15.12
71640;BMP280;60912;48.968;10.124;2023-05-10T01:47:39;95947.81;;;15.05
71640;BMP280;60912;48.968;10.124;2023-05-10T01:50:15;95951.31;;;15.15
71640;BMP280;60912;48.968;10.124;2023-05-10T01:52:50;95951.78;;;15.02
71640;BMP280;60912;48.968;10.124;2023-05-10T01:55:18;95947.38;;;15.09
71640;BMP280;60912;48.968;10.124;2023-05-10T01:57:46;95954.53;;;15.12
71640;BMP280;60912;48.968;10.124;2023-05-10T02:00:12;95962.75;;;15.00
71640;BMP280;60912;48.968;10.124;2023-05-10T02:02:40;95953.28;;;14.94
71640;BMP280;60912;48.968;10.124;2023-05-10T02:05:08;95955.94;;;14.82
71640;BMP280;60912;48.968;10.124;2023-05-10T02:07:35;95952.59;;;14.74
71640;BMP280;60912;48.968;10.124;2023-05-10T02:10:02;95960.59;;;14.80
71640;BMP280;60912;48.968;10.124;2023-05-10T02:12:30;95963.81;;;14.86
71640;BMP280;60912;48.968;10.124;2023-05-10T02:14:57;95964.09;;;14.90
71640;BMP280;60912;48.968;10.124;2023-05-10T02:17:24;95968.94;;;14.89
71640;BMP280;60912;48.968;10.124;2023-05-10T02:19:51;95962.78;;;14.81
71640;BMP280;60912;48.968;10.124;2023-05-10T02:22:18;95968.34;;;14.91
71640;BMP280;60912;48.968;10.124;2023-05-10T02:24:45;95969.78;;;14.92
71640;BMP280;60912;48.968;10.124;2023-05-10T02:27:12;95966.75;;;14.88
71640;BMP280;60912;48.968;10.124;2023-05-10T02:29:38;95973.91;;;14.81
71640;BMP280;60912;48.968;10.124;2023-05-10T02:32:04;95981.34;;;14.79
71640;BMP280;60912;48.968;10.124;2023-05-10T02:34:31;95982.06;;;14.89
71640;BMP280;60912;48.968;10.124;2023-05-10T02:36:58;95982.81;;;14.89
71640;BMP280;60912;48.968;10.124;2023-05-10T02:39:26;95988.03;;;14.95
71640;BMP280;60912;48.968;10.124;2023-05-10T02:41:53;95979.44;;;14.91
71640;BMP280;60912;48.968;10.124;2023-05-10T02:44:20;95980.72;;;14.90
71640;BMP280;60912;48.968;10.124;2023-05-10T02:46:47;95985.28;;;14.85
71640;BMP280;60912;48.968;10.124;2023-05-10T02:49:13;95988.34;;;14.80
71640;BMP280;60912;48.968;10.124;2023-05-10T02:51:43;96000.19;;;14.70
71640;BMP280;60912;48.968;10.124;2023-05-10T02:54:22;95992.81;;;14.54
71640;BMP280;60912;48.968;10.124;2023-05-10T02:56:56;95997.47;;;14.51
71640;BMP280;60912;48.968;10.124;2023-05-10T02:59:22;95999.78;;;14.45
71640;BMP280;60912;48.968;10.124;2023-05-10T03:04:38;96006.78;;;14.46
71640;BMP280;60912;48.968;10.124;2023-05-10T03:07:03;96013.50;;;14.43
71640;BMP280;60912;48.968;10.124;2023-05-10T03:09:29;96009.25;;;14.33
71640;BMP280;60912;48.968;10.124;2023-05-10T03:12:02;96011.75;;;14.38
71640;BMP280;60912;48.968;10.124;2023-05-10T03:19:57;96021.97;;;14.26
71640;BMP280;60912;48.968;10.124;2023-05-10T03:22:26;96015.69;;;14.35
71640;BMP280;60912;48.968;10.124;2023-05-10T03:24:56;96023.69;;;14.31
71640;BMP280;60912;48.968;10.124;2023-05-10T03:27:26;96022.81;;;14.19
71640;BMP280;60912;48.968;10.124;2023-05-10T03:29:53;96014.38;;;14.17
71640;BMP280;60912;48.968;10.124;2023-05-10T03:32:19;96028.09;;;14.15
71640;BMP280;60912;48.968;10.124;2023-05-10T03:34:44;96021.09;;;14.14
71640;BMP280;60912;48.968;10.124;2023-05-10T03:37:09;96033.19;;;14.18
71640;BMP280;60912;48.968;10.124;2023-05-10T03:39:35;96036.41;;;14.24
71640;BMP280;60912;48.968;10.124;2023-05-10T03:42:00;96040.78;;;14.18
71640;BMP280;60912;48.968;10.124;2023-05-10T03:44:26;96039.03;;;14.22
71640;BMP280;60912;48.968;10.124;2023-05-10T03:46:51;96043.41;;;14.16
71640;BMP280;60912;48.968;10.124;2023-05-10T03:49:17;96045.88;;;14.12
71640;BMP280;60912;48.968;10.124;2023-05-10T03:51:43;96050.97;;;14.06
71640;BMP280;60912;48.968;10.124;2023-05-10T03:54:08;96055.34;;;14.09
71640;BMP280;60912;48.968;10.124;2023-05-10T03:56:33;96056.97;;;14.12
71640;BMP280;60912;48.968;10.124;2023-05-10T03:58:59;96059.00;;;14.21
71640;BMP280;60912;48.968;10.124;2023-05-10T04:01:24;96065.13;;;14.29
71640;BMP280;60912;48.968;10.124;2023-05-10T04:03:50;96063.97;;;14.32
71640;BMP280;60912;48.968;10.124;2023-05-10T04:06:15;96070.25;;;14.42
71640;BMP280;60912;48.968;10.124;2023-05-10T04:08:40;96059.47;;;14.37
71640;BMP280;60912;48.968;10.124;2023-05-10T04:11:11;96064.28;;;14.36
71640;BMP280;60912;48.968;10.124;2023-05-10T04:13:36;96064.28;;;14.36
71640;BMP280;60912;48.968;10.124;2023-05-10T04:16:02;96057.56;;;14.39
71640;BMP280;60912;48.968;10.124;2023-05-10T04:18:27;96051.88;;;14.47
71640;BMP280;60912;48.968;10.124;2023-05-10T04:20:53;96041.25;;;14.53
71640;BMP280;60912;48.968;10.124;2023-05-10T04:23:18;96057.28;;;14.35
71640;BMP280;60912;48.968;10.124;2023-05-10T04:25:44;96051.16;;;14.27
71640;BMP280;60912;48.968;10.124;2023-05-10T04:28:09;96057.13;;;14.23
71640;BMP280;60912;48.968;10.124;2023-05-10T04:30:35;96063.84;;;14.40
71640;BMP280;60912;48.968;10.124;2023-05-10T04:33:01;96054.81;;;14.39
71640;BMP280;60912;48.968;10.124;2023-05-10T04:35:29;96064.84;;;14.44
71640;BMP280;60912;48.968;10.124;2023-05-10T04:37:55;96060.63;;;14.43
71640;BMP280;60912;48.968;10.124;2023-05-10T04:40:21;96058.63;;;14.53
71640;BMP280;60912;48.968;10.124;2023-05-10T04:42:46;96049.97;;;14.59
71640;BMP280;60912;48.968;10.124;2023-05-10T04:45:12;96053.63;;;14.71
71640;BMP280;60912;48.968;10.124;2023-05-10T04:47:39;96056.72;;;14.65
71640;BMP280;60912;48.968;10.124;2023-05-10T04:50:09;96060.06;;;14.54
71640;BMP280;60912;48.968;10.124;2023-05-10T04:52:40;96063.53;;;14.45
71640;BMP280;60912;48.968;10.124;2023-05-10T04:55:06;96056.13;;;14.48
71640;BMP280;60912;48.968;10.124;2023-05-10T04:57:33;96068.66;;;14.58
71640;BMP280;60912;48.968;10.124;2023-05-10T04:59:59;96061.22;;;14.61
71640;BMP280;60912;48.968;10.124;2023-05-10T05:02:25;96074.06;;;14.76
71640;BMP280;60912;48.968;10.124;2023-05-10T05:04:50;96069.13;;;14.64
71640;BMP280;60912;48.968;10.124;2023-05-10T05:07:16;96068.38;;;14.64
71640;BMP280;60912;48.968;10.124;2023-05-10T05:09:41;96064.00;;;14.70
71640;BMP280;60912;48.968;10.124;2023-05-10T05:12:07;96072.63;;;14.65
71640;BMP280;60912;48.968;10.124;2023-05-10T05:14:32;96075.09;;;14.51
71640;BMP280;60912;48.968;10.124;2023-05-10T05:16:58;96079.03;;;14.48
71640;BMP280;60912;48.968;10.124;2023-05-10T05:19:23;96086.91;;;14.52
71640;BMP280;60912;48.968;10.124;2023-05-10T05:21:49;96079.88;;;14.60
71640;BMP280;60912;48.968;10.124;2023-05-10T05:24:14;96081.94;;;14.69
71640;BMP280;60912;48.968;10.124;2023-05-10T05:26:40;96083.09;;;14.86
71640;BMP280;60912;48.968;10.124;2023-05-10T05:29:05;96090.25;;;14.89
71640;BMP280;60912;48.968;10.124;2023-05-10T05:31:31;96087.91;;;14.95
71640;BMP280;60912;48.968;10.124;2023-05-10T05:33:56;96090.25;;;14.69
71640;BMP280;60912;48.968;10.124;2023-05-10T05:36:22;96095.22;;;14.81
71640;BMP280;60912;48.968;10.124;2023-05-10T05:38:47;96092.97;;;15.08
71640;BMP280;60912;48.968;10.124;2023-05-10T05:41:13;96086.00;;;15.16
71640;BMP280;60912;48.968;10.124;2023-05-10T05:43:38;96092.53;;;15.21
71640;BMP280;60912;48.968;10.124;2023-05-10T05:46:04;96090.44;;;15.31
71640;BMP280;60912;48.968;10.124;2023-05-10T05:48:30;96097.31;;;15.40
71640;BMP280;60912;48.968;10.124;2023-05-10T05:50:56;96098.59;;;15.48
71640;BMP280;60912;48.968;10.124;2023-05-10T05:53:24;96103.06;;;15.63
71640;BMP280;60912;48.968;10.124;2023-05-10T05:55:54;96104.03;;;15.77
71640;BMP280;60912;48.968;10.124;2023-05-10T05:58:20;96101.00;;;15.73
71640;BMP280;60912;48.968;10.124;2023-05-10T06:00:46;96097.81;;;15.67
71640;BMP280;60912;48.968;10.124;2023-05-10T06:03:11;96107.75;;;15.60
71640;BMP280;60912;48.968;10.124;2023-05-10T06:05:37;96108.97;;;15.48
71640;BMP280;60912;48.968;10.124;2023-05-10T06:08:02;96118.81;;;15.39
71640;BMP280;60912;48.968;10.124;2023-05-10T06:10:28;96122.78;;;15.27
71640;BMP280;60912;48.968;10.124;2023-05-10T06:12:53;96122.03;;;15.26
71640;BMP280;60912;48.968;10.124;2023-05-10T06:15:19;96123.91;;;15.33
71640;BMP280;60912;48.968;10.124;2023-05-10T06:17:44;96129.44;;;15.43
71640;BMP280;60912;48.968;10.124;2023-05-10T06:20:11;96132.19;;;15.52
71640;BMP280;60912;48.968;10.124;2023-05-10T06:22:36;96130.41;;;15.66
71640;BMP280;60912;48.968;10.124;2023-05-10T06:25:02;96140.63;;;15.74
71640;BMP280;60912;48.968;10.124;2023-05-10T06:27:30;96128.84;;;15.85
71640;BMP280;60912;48.968;10.124;2023-05-10T06:29:55;96133.28;;;15.68
71640;BMP280;60912;48.968;10.124;2023-05-10T06:32:21;96134.63;;;15.67
71640;BMP280;60912;48.968;10.124;2023-05-10T06:34:49;96143.34;;;15.83
71640;BMP280;60912;48.968;10.124;2023-05-10T06:37:15;96148.75;;;15.81
71640;BMP280;60912;48.968;10.124;2023-05-10T06:39:40;96136.94;;;15.71
71640;BMP280;60912;48.968;10.124;2023-05-10T06:42:06;96145.75;;;15.67
71640;BMP280;60912;48.968;10.124;2023-05-10T06:44:31;96143.78;;;15.80
71640;BMP280;60912;48.968;10.124;2023-05-10T06:46:57;96157.81;;;15.82
71640;BMP280;60912;48.968;10.124;2023-05-10T06:49:22;96151.78;;;15.95
71640;BMP280;60912;48.968;10.124;2023-05-10T06:51:47;96156.88;;;15.98
71640;BMP280;60912;48.968;10.124;2023-05-10T06:54:13;96152.97;;;15.92
71640;BMP280;60912;48.968;10.124;2023-05-10T06:56:39;96156.16;;;15.98
71640;BMP280;60912;48.968;10.124;2023-05-10T06:59:04;96151.34;;;16.19
71640;BMP280;60912;48.968;10.124;2023-05-10T07:01:29;96152.19;;;16.01
71640;BMP280;60912;48.968;10.124;2023-05-10T07:03:55;96163.06;;;15.87
71640;BMP280;60912;48.968;10.124;2023-05-10T07:06:23;96161.97;;;16.02
71640;BMP280;60912;48.968;10.124;2023-05-10T07:08:51;96160.63;;;16.34
71640;BMP280;60912;48.968;10.124;2023-05-10T07:11:17;96160.78;;;16.57
71640;BMP280;60912;48.968;10.124;2023-05-10T07:13:42;96162.03;;;16.65
71640;BMP280;60912;48.968;10.124;2023-05-10T07:16:09;96165.44;;;16.43
71640;BMP280;60912;48.968;10.124;2023-05-10T07:27:23;96164.00;;;17.40
71640;BMP280;60912;48.968;10.124;2023-05-10T07:29:49;96167.41;;;17.39
71640;BMP280;60912;48.968;10.124;2023-05-10T07:32:16;96173.44;;;17.35
71640;BMP280;60912;48.968;10.124;2023-05-10T07:34:41;96177.31;;;17.30
71640;BMP280;60912;48.968;10.124;2023-05-10T07:37:07;96179.78;;;17.71
71640;BMP280;60912;48.968;10.124;2023-05-10T07:39:32;96175.31;;;17.89
71640;BMP280;60912;48.968;10.124;2023-05-10T07:41:58;96170.97;;;17.97
71640;BMP280;60912;48.968;10.124;2023-05-10T07:44:23;96180.56;;;18.06
71640;BMP280;60912;48.968;10.124;2023-05-10T07:46:49;96179.31;;;18.32
71640;BMP280;60912;48.968;10.124;2023-05-10T07:49:15;96185.09;;;18.48
71640;BMP280;60912;48.968;10.124;2023-05-10T07:51:40;96183.38;;;18.66
71640;BMP280;60912;48.968;10.124;2023-05-10T07:54:07;96179.16;;;18.90
71640;BMP280;60912;48.968;10.124;2023-05-10T07:56:32;96174.59;;;19.22
71640;BMP280;60912;48.968;10.124;2023-05-10T07:58:59;96175.44;;;19.63
71640;BMP280;60912;48.968;10.124;2023-05-10T08:01:26;96182.75;;;19.82
71640;BMP280;60912;48.968;10.124;2023-05-10T08:03:52;96179.97;;;19.96
71640;BMP280;60912;48.968;10.124;2023-05-10T08:06:19;96177.50;;;19.63
71640;BMP280;60912;48.968;10.124;2023-05-10T08:08:46;96174.16;;;19.39
71640;BMP280;60912;48.968;10.124;2023-05-10T08:11:15;96178.38;;;19.79
71640;BMP280;60912;48.968;10.124;2023-05-10T08:13:41;96163.59;;;20.04
71640;BMP280;60912;48.968;10.124;2023-05-10T08:16:07;96161.00;;;19.94
71640;BMP280;60912;48.968;10.124;2023-05-10T08:18:32;96177.66;;;19.79
71640;BMP280;60912;48.968;10.124;2023-05-10T08:20:58;96168.84;;;19.70
71640;BMP280;60912;48.968;10.124;2023-05-10T08:23:23;96174.00;;;19.23
71640;BMP280;60912;48.968;10.124;2023-05-10T08:25:49;96181.06;;;18.62
71640;BMP280;60912;48.968;10.124;2023-05-10T08:28:14;96185.69;;;18.46
71640;BMP280;60912;48.968;10.124;2023-05-10T08:30:40;96189.97;;;18.36
71640;BMP280;60912;48.968;10.124;2023-05-10T08:33:05;96196.06;;;18.21
71640;BMP280;60912;48.968;10.124;2023-05-10T08:35:30;96191.69;;;18.17
71640;BMP280;60912;48.968;10.124;2023-05-10T08:37:56;96198.47;;;18.26
71640;BMP280;60912;48.968;10.124;2023-05-10T08:40:24;96190.88;;;18.63
71640;BMP280;60912;48.968;10.124;2023-05-10T08:43:09;96199.81;;;18.74
71640;BMP280;60912;48.968;10.124;2023-05-10T08:45:40;96193.28;;;19.06
71640;BMP280;60912;48.968;10.124;2023-05-10T08:48:07;96192.41;;;19.15
71640;BMP280;60912;48.968;10.124;2023-05-10T08:50:37;96195.06;;;19.13
71640;BMP280;60912;48.968;10.124;2023-05-10T08:53:10;96200.31;;;19.32
71640;BMP280;60912;48.968;10.124;2023-05-10T08:55:37;96200.28;;;19.44
71640;BMP280;60912;48.968;10.124;2023-05-10T08:58:07;96190.63;;;19.33
71640;BMP280;60912;48.968;10.124;2023-05-10T09:00:34;96197.75;;;19.11
71640;BMP280;60912;48.968;10.124;2023-05-10T09:03:01;96205.06;;;19.04
71640;BMP280;60912;48.968;10.124;2023-05-10T09:05:27;96207.25;;;18.81
71640;BMP280;60912;48.968;10.124;2023-05-10T09:07:53;96202.47;;;18.95
71640;BMP280;60912;48.968;10.124;2023-05-10T09:10:19;96209.63;;;18.86
71640;BMP280;60912;48.968;10.124;2023-05-10T09:12:45;96217.78;;;18.82
71640;BMP280;60912;48.968;10.124;2023-05-10T09:15:12;96218.03;;;18.75
71640;BMP280;60912;48.968;10.124;2023-05-10T09:17:40;96220.97;;;18.77
71640;BMP280;60912;48.968;10.124;2023-05-10T09:20:06;96216.06;;;18.89
71640;BMP280;60912;48.968;10.124;2023-05-10T09:22:33;96221.34;;;18.96
71640;BMP280;60912;48.968;10.124;2023-05-10T09:25:12;96228.34;;;19.09
71640;BMP280;60912;48.968;10.124;2023-05-10T09:27:40;96231.34;;;19.25
71640;BMP280;60912;48.968;10.124;2023-05-10T09:30:06;96227.25;;;19.39
71640;BMP280;60912;48.968;10.124;2023-05-10T09:32:39;96231.25;;;19.61
71640;BMP280;60912;48.968;10.124;2023-05-10T09:37:41;96229.97;;;19.90
71640;BMP280;60912;48.968;10.124;2023-05-10T09:40:11;96230.03;;;19.64
71640;BMP280;60912;48.968;10.124;2023-05-10T09:42:37;96220.63;;;19.85
71640;BMP280;60912;48.968;10.124;2023-05-10T09:45:06;96224.31;;;19.62
71640;BMP280;60912;48.968;10.124;2023-05-10T09:47:33;96232.34;;;19.43
71640;BMP280;60912;48.968;10.124;2023-05-10T09:50:00;96224.97;;;19.88
71640;BMP280;60912;48.968;10.124;2023-05-10T09:52:54;96230.84;;;20.19
71640;BMP280;60912;48.968;10.124;2023-05-10T09:55:23;96236.31;;;20.31
71640;BMP280;60912;48.968;10.124;2023-05-10T09:57:49;96230.09;;;20.19
71640;BMP280;60912;48.968;10.124;2023-05-10T10:00:23;96231.56;;;20.20
71640;BMP280;60912;48.968;10.124;2023-05-10T10:02:59;96227.06;;;20.01
71640;BMP280;60912;48.968;10.124;2023-05-10T10:05:32;96222.22;;;20.02
71640;BMP280;60912;48.968;10.124;2023-05-10T10:07:59;96229.03;;;19.85
71640;BMP280;60912;48.968;10.124;2023-05-10T10:10:25;96229.81;;;19.60
71640;BMP280;60912;48.968;10.124;2023-05-10T10:12:51;96230.28;;;19.18
71640;BMP280;60912;48.968;10.124;2023-05-10T10:15:18;96230.03;;;18.89
71640;BMP280;60912;48.968;10.124;2023-05-10T10:17:44;96239.34;;;18.33
71640;BMP280;60912;48.968;10.124;2023-05-10T10:20:14;96237.06;;;18.18
71640;BMP280;60912;48.968;10.124;2023-05-10T10:22:40;96233.84;;;17.65
71640;BMP280;60912;48.968;10.124;2023-05-10T10:25:06;96226.19;;;17.54
71640;BMP280;60912;48.968;10.124;2023-05-10T10:30:24;96218.38;;;18.32
71640;BMP280;60912;48.968;10.124;2023-05-10T10:35:33;96210.06;;;18.46
71640;BMP280;60912;48.968;10.124;2023-05-10T10:38:00;96220.50;;;18.45
71640;BMP280;60912;48.968;10.124;2023-05-10T10:40:29;96214.34;;;18.95
71640;BMP280;60912;48.968;10.124;2023-05-10T10:42:55;96215.19;;;19.48
71640;BMP280;60912;48.968;10.124;2023-05-10T10:45:21;96205.59;;;19.65
71640;BMP280;60912;48.968;10.124;2023-05-10T10:47:48;96205.81;;;19.69
71640;BMP280;60912;48.968;10.124;2023-05-10T10:50:14;96217.97;;;19.48
71640;BMP280;60912;48.968;10.124;2023-05-10T10:52:45;96212.56;;;19.13
71640;BMP280;60912;48.968;10.124;2023-05-10T10:55:18;96223.06;;;19.01
71640;BMP280;60912;48.968;10.124;2023-05-10T10:57:55;96221.28;;;18.94
71640;BMP280;60912;48.968;10.124;2023-05-10T11:00:46;96227.41;;;19.04
71640;BMP280;60912;48.968;10.124;2023-05-10T11:03:13;96226.72;;;19.04
71640;BMP280;60912;48.968;10.124;2023-05-10T11:13:27;96236.75;;;18.60
71640;BMP280;60912;48.968;10.124;2023-05-10T11:15:59;96222.56;;;18.68
71640;BMP280;60912;48.968;10.124;2023-05-10T11:18:37;96230.91;;;18.80
71640;BMP280;60912;48.968;10.124;2023-05-10T11:21:10;96232.56;;;18.85
71640;BMP280;60912;48.968;10.124;2023-05-10T11:26:07;96227.97;;;19.65
71640;BMP280;60912;48.968;10.124;2023-05-10T11:28:44;96218.13;;;19.64
71640;BMP280;60912;48.968;10.124;2023-05-10T11:31:10;96222.72;;;19.98
71640;BMP280;60912;48.968;10.124;2023-05-10T11:33:47;96221.72;;;20.33
71640;BMP280;60912;48.968;10.124;2023-05-10T11:36:32;96226.38;;;20.55
71640;BMP280;60912;48.968;10.124;2023-05-10T11:38:58;96228.97;;;20.51
71640;BMP280;60912;48.968;10.124;2023-05-10T11:41:28;96221.59;;;20.44
71640;BMP280;60912;48.968;10.124;2023-05-10T11:43:55;96226.03;;;20.49
71640;BMP280;60912;48.968;10.124;2023-05-10T11:46:24;96223.06;;;20.45
71640;BMP280;60912;48.968;10.124;2023-05-10T11:48:55;96230.91;;;20.35
71640;BMP280;60912;48.968;10.124;2023-05-10T11:51:24;96226.47;;;20.57
71640;BMP280;60912;48.968;10.124;2023-05-10T11:53:53;96234.13;;;20.70
71640;BMP280;60912;48.968;10.124;2023-05-10T11:56:19;96223.13;;;20.47
71640;BMP280;60912;48.968;10.124;2023-05-10T11:58:53;96227.47;;;20.09
71640;BMP280;60912;48.968;10.124;2023-05-10T12:01:19;96232.81;;;20.17
71640;BMP280;60912;48.968;10.124;2023-05-10T12:03:44;96235.88;;;19.82
71640;BMP280;60912;48.968;10.124;2023-05-10T12:06:10;96235.72;;;19.66
71640;BMP280;60912;48.968;10.124;2023-05-10T12:08:35;96233.94;;;19.59
71640;BMP280;60912;48.968;10.124;2023-05-10T12:11:08;96230.09;;;19.92
71640;BMP280;60912;48.968;10.124;2023-05-10T12:13:39;96227.81;;;20.02
71640;BMP280;60912;48.968;10.124;2023-05-10T12:16:24;96237.72;;;19.78
71640;BMP280;60912;48.968;10.124;2023-05-10T12:18:54;96234.84;;;19.89
71640;BMP280;60912;48.968;10.124;2023-05-10T12:21:20;96232.63;;;19.35
71640;BMP280;60912;48.968;10.124;2023-05-10T12:23:48;96239.44;;;19.07
71640;BMP280;60912;48.968;10.124;2023-05-10T12:26:14;96247.84;;;18.95
71640;BMP280;60912;48.968;10.124;2023-05-10T12:28:40;96249.59;;;18.77
71640;BMP280;60912;48.968;10.124;2023-05-10T12:31:06;96253.97;;;18.68
71640;BMP280;60912;48.968;10.124;2023-05-10T12:33:42;96257.28;;;18.53
71640;BMP280;60912;48.968;10.124;2023-05-10T12:36:12;96252.94;;;18.27
71640;BMP280;60912;48.968;10.124;2023-05-10T12:38:43;96266.88;;;18.27
71640;BMP280;60912;48.968;10.124;2023-05-10T12:41:10;96268.81;;;18.25
71640;BMP280;60912;48.968;10.124;2023-05-10T12:43:36;96267.59;;;18.04
71640;BMP280;60912;48.968;10.124;2023-05-10T12:46:08;96268.56;;;17.97
71640;BMP280;60912;48.968;10.124;2023-05-10T12:48:35;96279.34;;;18.03
71640;BMP280;60912;48.968;10.124;2023-05-10T12:51:01;96278.50;;;18.12
71640;BMP280;60912;48.968;10.124;2023-05-10T12:53:27;96273.66;;;18.01
71640;BMP280;60912;48.968;10.124;2023-05-10T12:55:53;96274.38;;;18.01
71640;BMP280;60912;48.968;10.124;2023-05-10T12:58:19;96279.94;;;17.90
71640;BMP280;60912;48.968;10.124;2023-05-10T13:00:45;96282.13;;;17.91
71640;BMP280;60912;48.968;10.124;2023-05-10T13:03:10;96283.06;;;17.73
71640;BMP280;60912;48.968;10.124;2023-05-10T13:05:36;96279.53;;;17.84
71640;BMP280;60912;48.968;10.124;2023-05-10T13:08:01;96280.41;;;17.98
71640;BMP280;60912;48.968;10.124;2023-05-10T13:10:29;96282.72;;;17.90
71640;BMP280;60912;48.968;10.124;2023-05-10T13:12:55;96276.28;;;17.76
71640;BMP280;60912;48.968;10.124;2023-05-10T13:15:22;96279.81;;;17.88
71640;BMP280;60912;48.968;10.124;2023-05-10T13:17:47;96280.16;;;17.82
71640;BMP280;60912;48.968;10.124;2023-05-10T13:20:13;96282.84;;;17.80
71640;BMP280;60912;48.968;10.124;2023-05-10T13:22:41;96293.47;;;17.84
71640;BMP280;60912;48.968;10.124;2023-05-10T13:25:07;96292.19;;;17.96
71640;BMP280;60912;48.968;10.124;2023-05-10T13:27:33;96288.44;;;17.92
71640;BMP280;60912;48.968;10.124;2023-05-10T13:29:59;96300.22;;;18.02
71640;BMP280;60912;48.968;10.124;2023-05-10T13:32:25;96291.66;;;17.77
71640;BMP280;60912;48.968;10.124;2023-05-10T13:34:51;96292.91;;;17.97
71640;BMP280;60912;48.968;10.124;2023-05-10T13:37:16;96296.22;;;18.16
71640;BMP280;60912;48.968;10.124;2023-05-10T13:39:42;96293.78;;;18.11
71640;BMP280;60912;48.968;10.124;2023-05-10T13:42:15;96294.16;;;18.17
71640;BMP280;60912;48.968;10.124;2023-05-10T13:44:41;96298.41;;;18.41
71640;BMP280;60912;48.968;10.124;2023-05-10T13:47:07;96288.59;;;18.17
71640;BMP280;60912;48.968;10.124;2023-05-10T13:49:33;96294.28;;;18.19
71640;BMP280;60912;48.968;10.124;2023-05-10T13:51:59;96289.41;;;18.08
71640;BMP280;60912;48.968;10.124;2023-05-10T13:54:31;96291.81;;;17.90
71640;BMP280;60912;48.968;10.124;2023-05-10T13:56:57;96291.41;;;17.84
71640;BMP280;60912;48.968;10.124;2023-05-10T13:59:22;96291.00;;;18.11
71640;BMP280;60912;48.968;10.124;2023-05-10T14:01:48;96283.88;;;18.43
71640;BMP280;60912;48.968;10.124;2023-05-10T14:04:14;96288.69;;;18.65
71640;BMP280;60912;48.968;10.124;2023-05-10T14:06:40;96283.72;;;18.76
71640;BMP280;60912;48.968;10.124;2023-05-10T14:09:06;96284.78;;;18.70
71640;BMP280;60912;48.968;10.124;2023-05-10T14:11:33;96283.81;;;18.78
71640;BMP280;60912;48.968;10.124;2023-05-10T14:13:59;96278.00;;;18.74
71640;BMP280;60912;48.968;10.124;2023-05-10T14:16:25;96278.50;;;18.47
71640;BMP280;60912;48.968;10.124;2023-05-10T14:18:52;96282.88;;;18.61
71640;BMP280;60912;48.968;10.124;2023-05-10T14:21:18;96283.47;;;18.60
71640;BMP280;60912;48.968;10.124;2023-05-10T14:23:43;96285.69;;;18.38
71640;BMP280;60912;48.968;10.124;2023-05-10T14:26:12;96276.13;;;18.30
71640;BMP280;60912;48.968;10.124;2023-05-10T14:28:37;96288.47;;;18.27
71640;BMP280;60912;48.968;10.124;2023-05-10T14:31:03;96283.47;;;18.13
71640;BMP280;60912;48.968;10.124;2023-05-10T14:33:29;96280.94;;;18.17
71640;BMP280;60912;48.968;10.124;2023-05-10T14:35:55;96279.22;;;18.36
71640;BMP280;60912;48.968;10.124;2023-05-10T14:38:22;96273.16;;;18.51
71640;BMP280;60912;48.968;10.124;2023-05-10T14:40:48;96274.63;;;18.40